sensor_id;sensor_type;location;lat;lon;timestamp;P1;durP1;ratioP1;P2;durP2;ratioP2
52742;SDS011;55583;53.012;6.556;2023-04-15T00:02:14;18.42;;;6.28;;
52742;SDS011;55583;53.012;6.556;2023-04-15T00:04:42;15.95;;;6.03;;
52742;SDS011;55583;53.012;6.556;2023-04-15T00:07:11;14.07;;;6.75;;
52742;SDS011;55583;53.012;6.556;2023-04-15T00:09:43;23.02;;;7.25;;
52742;SDS011;55583;53.012;6.556;2023-04-15T00:12:09;10.27;;;5.93;;
52742;SDS011;55583;53.012;6.556;2023-04-15T00:14:36;13.90;;;6.53;;
52742;SDS011;55583;53.012;6.556;2023-04-15T00:17:02;11.52;;;6.20;;
52742;SDS011;55583;53.012;6.556;2023-04-15T00:19:29;11.75;;;5.30;;
52742;SDS011;55583;53.012;6.556;2023-04-15T00:21:55;18.17;;;7.20;;
52742;SDS011;55583;53.012;6.556;2023-04-15T00:24:21;17.42;;;6.47;;
52742;SDS011;55583;53.012;6.556;2023-04-15T00:26:47;20.00;;;7.07;;
52742;SDS011;55583;53.012;6.556;2023-04-15T00:29:13;14.48;;;7.43;;
52742;SDS011;55583;53.012;6.556;2023-04-15T00:31:39;16.88;;;6.43;;
52742;SDS011;55583;53.012;6.556;2023-04-15T00:34:06;19.40;;;7.60;;
52742;SDS011;55583;53.012;6.556;2023-04-15T00:36:31;17.33;;;6.72;;
52742;SDS011;55583;53.012;6.556;2023-04-15T00:38:59;14.38;;;7.30;;
52742;SDS011;55583;53.012;6.556;2023-04-15T00:41:24;18.42;;;7.47;;
52742;SDS011;55583;53.012;6.556;2023-04-15T00:43:50;17.48;;;7.63;;
52742;SDS011;55583;53.012;6.556;2023-04-15T00:46:16;12.43;;;6.30;;
52742;SDS011;55583;53.012;6.556;2023-04-15T00:48:44;17.33;;;6.93;;
52742;SDS011;55583;53.012;6.556;2023-04-15T00:51:11;16.40;;;7.30;;
52742;SDS011;55583;53.012;6.556;2023-04-15T00:53:37;17.65;;;7.70;;
52742;SDS011;55583;53.012;6.556;2023-04-15T00:56:03;14.23;;;7.35;;
52742;SDS011;55583;53.012;6.556;2023-04-15T00:58:29;17.05;;;8.05;;
52742;SDS011;55583;53.012;6.556;2023-04-15T01:00:55;29.50;;;9.60;;
52742;SDS011;55583;53.012;6.556;2023-04-15T01:03:22;18.77;;;8.38;;
52742;SDS011;55583;53.012;6.556;2023-04-15T01:05:48;19.70;;;8.73;;
52742;SDS011;55583;53.012;6.556;2023-04-15T01:08:14;20.15;;;8.50;;
52742;SDS011;55583;53.012;6.556;2023-04-15T01:10:40;18.25;;;7.43;;
52742;SDS011;55583;53.012;6.556;2023-04-15T01:13:06;17.67;;;8.95;;
52742;SDS011;55583;53.012;6.556;2023-04-15T01:15:31;16.45;;;8.88;;
52742;SDS011;55583;53.012;6.556;2023-04-15T01:18:00;13.27;;;8.93;;
52742;SDS011;55583;53.012;6.556;2023-04-15T01:20:28;17.63;;;9.05;;
52742;SDS011;55583;53.012;6.556;2023-04-15T01:22:54;13.35;;;8.13;;
52742;SDS011;55583;53.012;6.556;2023-04-15T01:25:27;13.40;;;8.85;;
52742;SDS011;55583;53.012;6.556;2023-04-15T01:27:57;16.05;;;9.65;;
52742;SDS011;55583;53.012;6.556;2023-04-15T01:30:23;14.80;;;8.88;;
52742;SDS011;55583;53.012;6.556;2023-04-15T01:32:49;17.08;;;8.75;;
52742;SDS011;55583;53.012;6.556;2023-04-15T01:35:15;20.00;;;9.55;;
52742;SDS011;55583;53.012;6.556;2023-04-15T01:37:41;15.77;;;9.50;;
52742;SDS011;55583;53.012;6.556;2023-04-15T01:40:07;22.35;;;10.23;;
52742;SDS011;55583;53.012;6.556;2023-04-15T01:42:33;19.95;;;9.57;;
52742;SDS011;55583;53.012;6.556;2023-04-15T01:45:00;22.15;;;10.18;;
52742;SDS011;55583;53.012;6.556;2023-04-15T01:47:26;20.75;;;10.15;;
52742;SDS011;55583;53.012;6.556;2023-04-15T01:49:52;17.13;;;10.23;;
52742;SDS011;55583;53.012;6.556;2023-04-15T01:52:18;23.15;;;10.88;;
52742;SDS011;55583;53.012;6.556;2023-04-15T01:54:43;20.30;;;10.50;;
52742;SDS011;55583;53.012;6.556;2023-04-15T01:57:09;19.33;;;10.75;;
52742;SDS011;55583;53.012;6.556;2023-04-15T01:59:35;19.27;;;10.65;;
52742;SDS011;55583;53.012;6.556;2023-04-15T02:02:01;21.83;;;10.90;;
52742;SDS011;55583;53.012;6.556;2023-04-15T02:04:26;18.63;;;10.50;;
52742;SDS011;55583;53.012;6.556;2023-04-15T02:06:52;19.77;;;10.18;;
52742;SDS011;55583;53.012;6.556;2023-04-15T02:09:18;26.30;;;12.00;;
52742;SDS011;55583;53.012;6.556;2023-04-15T02:11:44;18.85;;;11.80;;
52742;SDS011;55583;53.012;6.556;2023-04-15T02:14:09;20.08;;;10.82;;
52742;SDS011;55583;53.012;6.556;2023-04-15T02:16:35;24.75;;;12.32;;
52742;SDS011;55583;53.012;6.556;2023-04-15T02:19:01;26.60;;;12.23;;
52742;SDS011;55583;53.012;6.556;2023-04-15T02:21:28;22.83;;;12.77;;
52742;SDS011;55583;53.012;6.556;2023-04-15T02:23:54;24.05;;;11.68;;
52742;SDS011;55583;53.012;6.556;2023-04-15T02:26:20;26.67;;;13.10;;
52742;SDS011;55583;53.012;6.556;2023-04-15T02:28:46;21.95;;;13.05;;
52742;SDS011;55583;53.012;6.556;2023-04-15T02:31:13;22.88;;;12.35;;
52742;SDS011;55583;53.012;6.556;2023-04-15T02:33:38;24.20;;;12.18;;
52742;SDS011;55583;53.012;6.556;2023-04-15T02:36:04;23.60;;;12.13;;
52742;SDS011;55583;53.012;6.556;2023-04-15T02:38:31;29.27;;;13.43;;
52742;SDS011;55583;53.012;6.556;2023-04-15T02:40:57;26.98;;;13.32;;
52742;SDS011;55583;53.012;6.556;2023-04-15T02:43:23;30.92;;;13.38;;
52742;SDS011;55583;53.012;6.556;2023-04-15T02:45:48;26.48;;;13.48;;
52742;SDS011;55583;53.012;6.556;2023-04-15T02:48:15;28.02;;;13.32;;
52742;SDS011;55583;53.012;6.556;2023-04-15T02:50:43;25.77;;;13.70;;
52742;SDS011;55583;53.012;6.556;2023-04-15T02:53:09;24.85;;;13.95;;
52742;SDS011;55583;53.012;6.556;2023-04-15T02:55:35;26.27;;;14.15;;
52742;SDS011;55583;53.012;6.556;2023-04-15T02:58:01;25.38;;;13.98;;
52742;SDS011;55583;53.012;6.556;2023-04-15T03:00:27;29.35;;;15.13;;
52742;SDS011;55583;53.012;6.556;2023-04-15T03:02:56;31.45;;;14.55;;
52742;SDS011;55583;53.012;6.556;2023-04-15T03:05:31;23.00;;;14.20;;
52742;SDS011;55583;53.012;6.556;2023-04-15T03:07:57;34.40;;;15.80;;
52742;SDS011;55583;53.012;6.556;2023-04-15T03:10:23;28.08;;;14.40;;
52742;SDS011;55583;53.012;6.556;2023-04-15T03:12:48;27.83;;;14.25;;
52742;SDS011;55583;53.012;6.556;2023-04-15T03:15:14;27.88;;;14.52;;
52742;SDS011;55583;53.012;6.556;2023-04-15T03:17:40;27.30;;;14.45;;
52742;SDS011;55583;53.012;6.556;2023-04-15T03:20:06;25.90;;;14.60;;
52742;SDS011;55583;53.012;6.556;2023-04-15T03:22:33;27.38;;;14.88;;
52742;SDS011;55583;53.012;6.556;2023-04-15T03:24:59;29.40;;;15.40;;
52742;SDS011;55583;53.012;6.556;2023-04-15T03:27:24;32.00;;;15.98;;
52742;SDS011;55583;53.012;6.556;2023-04-15T03:29:50;31.08;;;15.90;;
52742;SDS011;55583;53.012;6.556;2023-04-15T03:32:16;29.25;;;14.98;;
52742;SDS011;55583;53.012;6.556;2023-04-15T03:34:42;29.40;;;16.00;;
52742;SDS011;55583;53.012;6.556;2023-04-15T03:37:08;30.67;;;15.45;;
52742;SDS011;55583;53.012;6.556;2023-04-15T03:39:34;29.13;;;16.38;;
52742;SDS011;55583;53.012;6.556;2023-04-15T03:41:59;27.52;;;15.95;;
52742;SDS011;55583;53.012;6.556;2023-04-15T03:44:26;34.15;;;16.67;;
52742;SDS011;55583;53.012;6.556;2023-04-15T03:46:51;34.20;;;17.15;;
52742;SDS011;55583;53.012;6.556;2023-04-15T03:49:17;31.67;;;16.80;;
52742;SDS011;55583;53.012;6.556;2023-04-15T03:51:44;33.85;;;18.10;;
52742;SDS011;55583;53.012;6.556;2023-04-15T03:54:10;35.55;;;18.42;;
52742;SDS011;55583;53.012;6.556;2023-04-15T03:56:36;38.28;;;21.45;;
52742;SDS011;55583;53.012;6.556;2023-04-15T03:59:02;38.20;;;19.92;;
52742;SDS011;55583;53.012;6.556;2023-04-15T04:01:28;44.92;;;21.35;;
52742;SDS011;55583;53.012;6.556;2023-04-15T04:03:53;43.50;;;20.40;;
52742;SDS011;55583;53.012;6.556;2023-04-15T04:06:19;41.08;;;21.70;;
52742;SDS011;55583;53.012;6.556;2023-04-15T04:08:44;43.45;;;19.95;;
52742;SDS011;55583;53.012;6.556;2023-04-15T04:11:10;43.42;;;21.48;;
52742;SDS011;55583;53.012;6.556;2023-04-15T04:13:36;35.85;;;19.30;;
52742;SDS011;55583;53.012;6.556;2023-04-15T04:16:01;47.10;;;20.75;;
52742;SDS011;55583;53.012;6.556;2023-04-15T04:18:28;41.22;;;18.70;;
52742;SDS011;55583;53.012;6.556;2023-04-15T04:20:55;54.95;;;21.60;;
52742;SDS011;55583;53.012;6.556;2023-04-15T04:23:21;48.03;;;22.00;;
52742;SDS011;55583;53.012;6.556;2023-04-15T04:25:47;42.50;;;20.80;;
52742;SDS011;55583;53.012;6.556;2023-04-15T04:28:12;44.42;;;20.45;;
52742;SDS011;55583;53.012;6.556;2023-04-15T04:30:38;35.97;;;18.77;;
52742;SDS011;55583;53.012;6.556;2023-04-15T04:33:04;40.30;;;21.05;;
52742;SDS011;55583;53.012;6.556;2023-04-15T04:35:30;43.92;;;21.17;;
52742;SDS011;55583;53.012;6.556;2023-04-15T04:37:58;40.20;;;19.95;;
52742;SDS011;55583;53.012;6.556;2023-04-15T04:40:25;42.17;;;19.60;;
52742;SDS011;55583;53.012;6.556;2023-04-15T04:42:51;42.22;;;21.38;;
52742;SDS011;55583;53.012;6.556;2023-04-15T04:45:17;47.92;;;20.80;;
52742;SDS011;55583;53.012;6.556;2023-04-15T04:47:43;55.63;;;24.02;;
52742;SDS011;55583;53.012;6.556;2023-04-15T04:50:09;51.28;;;22.55;;
52742;SDS011;55583;53.012;6.556;2023-04-15T04:52:35;43.33;;;20.50;;
52742;SDS011;55583;53.012;6.556;2023-04-15T04:55:02;45.00;;;21.40;;
52742;SDS011;55583;53.012;6.556;2023-04-15T04:57:27;54.03;;;23.20;;
52742;SDS011;55583;53.012;6.556;2023-04-15T04:59:53;52.30;;;23.90;;
52742;SDS011;55583;53.012;6.556;2023-04-15T05:02:19;49.10;;;23.00;;
52742;SDS011;55583;53.012;6.556;2023-04-15T05:04:44;50.72;;;22.15;;
52742;SDS011;55583;53.012;6.556;2023-04-15T05:07:10;52.00;;;24.42;;
52742;SDS011;55583;53.012;6.556;2023-04-15T05:09:36;48.33;;;22.50;;
52742;SDS011;55583;53.012;6.556;2023-04-15T05:12:04;52.85;;;23.73;;
52742;SDS011;55583;53.012;6.556;2023-04-15T05:14:30;57.22;;;23.58;;
52742;SDS011;55583;53.012;6.556;2023-04-15T05:16:56;55.75;;;24.73;;
52742;SDS011;55583;53.012;6.556;2023-04-15T05:19:21;54.08;;;24.15;;
52742;SDS011;55583;53.012;6.556;2023-04-15T05:21:47;52.35;;;23.95;;
52742;SDS011;55583;53.012;6.556;2023-04-15T05:24:13;62.50;;;26.52;;
52742;SDS011;55583;53.012;6.556;2023-04-15T05:26:38;62.10;;;25.90;;
52742;SDS011;55583;53.012;6.556;2023-04-15T05:29:04;69.97;;;26.88;;
52742;SDS011;55583;53.012;6.556;2023-04-15T05:31:30;61.63;;;25.75;;
52742;SDS011;55583;53.012;6.556;2023-04-15T05:33:55;63.25;;;25.77;;
52742;SDS011;55583;53.012;6.556;2023-04-15T05:36:21;77.45;;;28.50;;
52742;SDS011;55583;53.012;6.556;2023-04-15T05:38:47;64.88;;;28.30;;
52742;SDS011;55583;53.012;6.556;2023-04-15T05:41:12;75.00;;;28.33;;
52742;SDS011;55583;53.012;6.556;2023-04-15T05:43:39;71.43;;;29.55;;
52742;SDS011;55583;53.012;6.556;2023-04-15T05:46:05;70.70;;;28.77;;
52742;SDS011;55583;53.012;6.556;2023-04-15T05:48:32;65.78;;;27.88;;
52742;SDS011;55583;53.012;6.556;2023-04-15T05:50:58;69.00;;;29.02;;
52742;SDS011;55583;53.012;6.556;2023-04-15T05:53:24;69.45;;;30.05;;
52742;SDS011;55583;53.012;6.556;2023-04-15T05:55:50;55.35;;;25.85;;
52742;SDS011;55583;53.012;6.556;2023-04-15T05:58:16;51.20;;;24.20;;
52742;SDS011;55583;53.012;6.556;2023-04-15T06:00:42;52.83;;;26.33;;
52742;SDS011;55583;53.012;6.556;2023-04-15T06:03:08;48.85;;;24.90;;
52742;SDS011;55583;53.012;6.556;2023-04-15T06:05:35;47.75;;;23.67;;
52742;SDS011;55583;53.012;6.556;2023-04-15T06:08:01;46.88;;;25.35;;
52742;SDS011;55583;53.012;6.556;2023-04-15T06:10:27;38.80;;;22.75;;
52742;SDS011;55583;53.012;6.556;2023-04-15T06:15:26;37.35;;;19.90;;
52742;SDS011;55583;53.012;6.556;2023-04-15T06:17:51;35.58;;;20.40;;
52742;SDS011;55583;53.012;6.556;2023-04-15T06:20:17;35.97;;;20.77;;
52742;SDS011;55583;53.012;6.556;2023-04-15T06:22:43;40.00;;;20.00;;
52742;SDS011;55583;53.012;6.556;2023-04-15T06:25:09;31.23;;;19.65;;
52742;SDS011;55583;53.012;6.556;2023-04-15T06:27:34;25.88;;;17.58;;
52742;SDS011;55583;53.012;6.556;2023-04-15T06:30:00;30.42;;;18.10;;
52742;SDS011;55583;53.012;6.556;2023-04-15T06:32:26;26.10;;;16.40;;
52742;SDS011;55583;53.012;6.556;2023-04-15T06:34:51;24.70;;;16.60;;
52742;SDS011;55583;53.012;6.556;2023-04-15T06:37:17;25.13;;;16.02;;
52742;SDS011;55583;53.012;6.556;2023-04-15T06:39:42;23.98;;;15.23;;
52742;SDS011;55583;53.012;6.556;2023-04-15T06:42:08;22.30;;;14.80;;
52742;SDS011;55583;53.012;6.556;2023-04-15T06:44:35;22.77;;;14.85;;
52742;SDS011;55583;53.012;6.556;2023-04-15T06:47:01;22.45;;;14.25;;
52742;SDS011;55583;53.012;6.556;2023-04-15T06:49:27;18.75;;;12.65;;
52742;SDS011;55583;53.012;6.556;2023-04-15T06:51:53;21.00;;;14.05;;
52742;SDS011;55583;53.012;6.556;2023-04-15T06:54:18;21.30;;;13.85;;
52742;SDS011;55583;53.012;6.556;2023-04-15T06:56:44;18.17;;;13.23;;
52742;SDS011;55583;53.012;6.556;2023-04-15T06:59:10;30.17;;;14.18;;
52742;SDS011;55583;53.012;6.556;2023-04-15T07:01:35;21.08;;;13.38;;
52742;SDS011;55583;53.012;6.556;2023-04-15T07:04:01;21.00;;;13.13;;
52742;SDS011;55583;53.012;6.556;2023-04-15T07:06:27;17.67;;;12.13;;
52742;SDS011;55583;53.012;6.556;2023-04-15T07:08:52;19.25;;;12.88;;
52742;SDS011;55583;53.012;6.556;2023-04-15T07:11:18;22.83;;;11.88;;
52742;SDS011;55583;53.012;6.556;2023-04-15T07:13:45;18.90;;;11.13;;
52742;SDS011;55583;53.012;6.556;2023-04-15T07:16:10;20.35;;;11.15;;
52742;SDS011;55583;53.012;6.556;2023-04-15T07:18:36;18.85;;;10.77;;
52742;SDS011;55583;53.012;6.556;2023-04-15T07:21:02;17.73;;;10.52;;
52742;SDS011;55583;53.012;6.556;2023-04-15T07:23:27;17.58;;;10.57;;
52742;SDS011;55583;53.012;6.556;2023-04-15T07:25:53;21.92;;;10.88;;
52742;SDS011;55583;53.012;6.556;2023-04-15T07:28:19;16.92;;;11.00;;
52742;SDS011;55583;53.012;6.556;2023-04-15T07:30:45;17.05;;;10.43;;
52742;SDS011;55583;53.012;6.556;2023-04-15T07:33:11;15.00;;;10.55;;
52742;SDS011;55583;53.012;6.556;2023-04-15T07:35:36;15.00;;;9.38;;
52742;SDS011;55583;53.012;6.556;2023-04-15T07:38:02;13.93;;;9.15;;
52742;SDS011;55583;53.012;6.556;2023-04-15T07:40:28;13.90;;;8.25;;
52742;SDS011;55583;53.012;6.556;2023-04-15T07:42:54;13.77;;;9.48;;
52742;SDS011;55583;53.012;6.556;2023-04-15T07:45:21;14.05;;;8.10;;
52742;SDS011;55583;53.012;6.556;2023-04-15T07:47:46;12.45;;;8.07;;
52742;SDS011;55583;53.012;6.556;2023-04-15T07:50:12;12.75;;;8.40;;
52742;SDS011;55583;53.012;6.556;2023-04-15T07:52:38;14.32;;;8.52;;
52742;SDS011;55583;53.012;6.556;2023-04-15T07:55:05;14.05;;;7.75;;
52742;SDS011;55583;53.012;6.556;2023-04-15T07:57:32;11.50;;;7.30;;
52742;SDS011;55583;53.012;6.556;2023-04-15T07:59:59;11.73;;;6.47;;
52742;SDS011;55583;53.012;6.556;2023-04-15T08:02:25;9.75;;;6.68;;
52742;SDS011;55583;53.012;6.556;2023-04-15T08:04:51;11.43;;;6.00;;
52742;SDS011;55583;53.012;6.556;2023-04-15T08:07:18;9.07;;;5.80;;
52742;SDS011;55583;53.012;6.556;2023-04-15T08:09:43;10.52;;;6.18;;
52742;SDS011;55583;53.012;6.556;2023-04-15T08:12:10;9.40;;;5.70;;
52742;SDS011;55583;53.012;6.556;2023-04-15T08:14:37;7.13;;;4.97;;
52742;SDS011;55583;53.012;6.556;2023-04-15T08:17:03;9.70;;;6.20;;
52742;SDS011;55583;53.012;6.556;2023-04-15T08:19:29;9.00;;;4.78;;
52742;SDS011;55583;53.012;6.556;2023-04-15T08:21:55;7.10;;;5.13;;
52742;SDS011;55583;53.012;6.556;2023-04-15T08:24:21;10.95;;;5.35;;
52742;SDS011;55583;53.012;6.556;2023-04-15T08:26:48;9.82;;;5.50;;
52742;SDS011;55583;53.012;6.556;2023-04-15T08:29:13;7.22;;;5.70;;
52742;SDS011;55583;53.012;6.556;2023-04-15T08:31:40;14.23;;;6.30;;
52742;SDS011;55583;53.012;6.556;2023-04-15T08:34:05;9.00;;;6.15;;
52742;SDS011;55583;53.012;6.556;2023-04-15T08:36:31;8.68;;;6.32;;
52742;SDS011;55583;53.012;6.556;2023-04-15T08:38:57;15.77;;;6.72;;
52742;SDS011;55583;53.012;6.556;2023-04-15T08:41:25;11.05;;;6.35;;
52742;SDS011;55583;53.012;6.556;2023-04-15T08:43:56;11.55;;;6.85;;
52742;SDS011;55583;53.012;6.556;2023-04-15T08:46:25;10.77;;;6.43;;
52742;SDS011;55583;53.012;6.556;2023-04-15T08:48:50;10.30;;;6.18;;
52742;SDS011;55583;53.012;6.556;2023-04-15T08:51:19;11.25;;;6.50;;
52742;SDS011;55583;53.012;6.556;2023-04-15T08:53:45;11.50;;;6.75;;
52742;SDS011;55583;53.012;6.556;2023-04-15T08:56:12;10.98;;;5.70;;
52742;SDS011;55583;53.012;6.556;2023-04-15T08:58:40;14.05;;;5.68;;
52742;SDS011;55583;53.012;6.556;2023-04-15T09:01:06;12.38;;;6.45;;
52742;SDS011;55583;53.012;6.556;2023-04-15T09:03:32;14.20;;;5.60;;
52742;SDS011;55583;53.012;6.556;2023-04-15T09:05:58;11.15;;;5.07;;
52742;SDS011;55583;53.012;6.556;2023-04-15T09:08:24;10.63;;;4.85;;
52742;SDS011;55583;53.012;6.556;2023-04-15T09:10:50;10.93;;;5.22;;
52742;SDS011;55583;53.012;6.556;2023-04-15T09:13:17;9.50;;;4.32;;
52742;SDS011;55583;53.012;6.556;2023-04-15T09:15:42;10.10;;;5.20;;
52742;SDS011;55583;53.012;6.556;2023-04-15T09:18:10;11.93;;;4.10;;
52742;SDS011;55583;53.012;6.556;2023-04-15T09:20:38;11.32;;;4.18;;
52742;SDS011;55583;53.012;6.556;2023-04-15T09:23:12;8.38;;;3.78;;
52742;SDS011;55583;53.012;6.556;2023-04-15T09:28:06;5.05;;;2.78;;
52742;SDS011;55583;53.012;6.556;2023-04-15T09:30:32;7.97;;;3.17;;
52742;SDS011;55583;53.012;6.556;2023-04-15T09:32:59;8.35;;;2.88;;
52742;SDS011;55583;53.012;6.556;2023-04-15T09:35:26;6.85;;;3.33;;
52742;SDS011;55583;53.012;6.556;2023-04-15T09:37:52;4.05;;;2.35;;
52742;SDS011;55583;53.012;6.556;2023-04-15T09:40:33;8.25;;;2.75;;
52742;SDS011;55583;53.012;6.556;2023-04-15T09:43:00;7.45;;;2.80;;
52742;SDS011;55583;53.012;6.556;2023-04-15T09:45:27;9.02;;;2.85;;
52742;SDS011;55583;53.012;6.556;2023-04-15T09:47:53;5.78;;;2.88;;
52742;SDS011;55583;53.012;6.556;2023-04-15T09:50:21;8.60;;;3.15;;
52742;SDS011;55583;53.012;6.556;2023-04-15T09:52:46;4.78;;;1.77;;
52742;SDS011;55583;53.012;6.556;2023-04-15T09:55:13;7.88;;;2.38;;
52742;SDS011;55583;53.012;6.556;2023-04-15T09:57:40;3.97;;;2.75;;
52742;SDS011;55583;53.012;6.556;2023-04-15T10:00:06;3.72;;;2.22;;
52742;SDS011;55583;53.012;6.556;2023-04-15T10:02:35;3.13;;;1.92;;
52742;SDS011;55583;53.012;6.556;2023-04-15T10:05:03;2.22;;;1.92;;
52742;SDS011;55583;53.012;6.556;2023-04-15T10:07:30;2.40;;;1.40;;
52742;SDS011;55583;53.012;6.556;2023-04-15T10:09:56;5.40;;;2.10;;
52742;SDS011;55583;53.012;6.556;2023-04-15T10:12:26;5.10;;;2.22;;
52742;SDS011;55583;53.012;6.556;2023-04-15T10:14:55;3.40;;;1.92;;
52742;SDS011;55583;53.012;6.556;2023-04-15T10:19:58;3.83;;;2.08;;
52742;SDS011;55583;53.012;6.556;2023-04-15T10:22:26;5.47;;;2.33;;
52742;SDS011;55583;53.012;6.556;2023-04-15T10:24:52;4.38;;;2.15;;
52742;SDS011;55583;53.012;6.556;2023-04-15T10:27:20;5.70;;;2.47;;
52742;SDS011;55583;53.012;6.556;2023-04-15T10:29:47;4.28;;;2.50;;
52742;SDS011;55583;53.012;6.556;2023-04-15T10:32:18;4.32;;;1.67;;
52742;SDS011;55583;53.012;6.556;2023-04-15T10:34:45;5.95;;;2.25;;
52742;SDS011;55583;53.012;6.556;2023-04-15T10:37:19;4.95;;;1.85;;
52742;SDS011;55583;53.012;6.556;2023-04-15T10:39:46;2.65;;;1.90;;
52742;SDS011;55583;53.012;6.556;2023-04-15T10:42:13;3.78;;;2.20;;
52742;SDS011;55583;53.012;6.556;2023-04-15T10:44:44;4.10;;;1.77;;
52742;SDS011;55583;53.012;6.556;2023-04-15T10:47:16;6.55;;;1.85;;
52742;SDS011;55583;53.012;6.556;2023-04-15T10:49:47;3.90;;;2.00;;
52742;SDS011;55583;53.012;6.556;2023-04-15T10:52:21;2.83;;;1.75;;
52742;SDS011;55583;53.012;6.556;2023-04-15T10:55:00;2.15;;;1.58;;
52742;SDS011;55583;53.012;6.556;2023-04-15T10:57:33;5.88;;;2.03;;
52742;SDS011;55583;53.012;6.556;2023-04-15T11:00:23;4.75;;;1.92;;
52742;SDS011;55583;53.012;6.556;2023-04-15T11:03:05;4.22;;;2.13;;
52742;SDS011;55583;53.012;6.556;2023-04-15T11:08:03;10.52;;;2.30;;
52742;SDS011;55583;53.012;6.556;2023-04-15T11:13:28;11.20;;;2.28;;
52742;SDS011;55583;53.012;6.556;2023-04-15T11:15:47;10.20;;;2.35;;
52742;SDS011;55583;53.012;6.556;2023-04-15T11:18:14;8.38;;;2.50;;
52742;SDS011;55583;53.012;6.556;2023-04-15T11:20:55;3.35;;;2.20;;
52742;SDS011;55583;53.012;6.556;2023-04-15T11:23:35;7.15;;;2.35;;
52742;SDS011;55583;53.012;6.556;2023-04-15T11:26:04;5.40;;;2.30;;
52742;SDS011;55583;53.012;6.556;2023-04-15T11:28:33;5.25;;;2.13;;
52742;SDS011;55583;53.012;6.556;2023-04-15T11:31:09;5.65;;;2.63;;
52742;SDS011;55583;53.012;6.556;2023-04-15T11:33:37;5.38;;;1.92;;
52742;SDS011;55583;53.012;6.556;2023-04-15T11:36:08;5.13;;;2.20;;
52742;SDS011;55583;53.012;6.556;2023-04-15T11:38:34;4.75;;;2.38;;
52742;SDS011;55583;53.012;6.556;2023-04-15T11:41:01;5.90;;;2.50;;
52742;SDS011;55583;53.012;6.556;2023-04-15T11:43:27;9.38;;;2.70;;
52742;SDS011;55583;53.012;6.556;2023-04-15T11:46:00;11.48;;;2.53;;
52742;SDS011;55583;53.012;6.556;2023-04-15T11:48:27;9.23;;;2.13;;
52742;SDS011;55583;53.012;6.556;2023-04-15T11:50:58;9.23;;;2.70;;
52742;SDS011;55583;53.012;6.556;2023-04-15T11:53:38;5.38;;;2.05;;
52742;SDS011;55583;53.012;6.556;2023-04-15T11:56:32;9.40;;;2.75;;
52742;SDS011;55583;53.012;6.556;2023-04-15T11:58:57;10.20;;;2.30;;
52742;SDS011;55583;53.012;6.556;2023-04-15T12:01:36;14.55;;;3.45;;
52742;SDS011;55583;53.012;6.556;2023-04-15T12:04:13;7.05;;;1.88;;
52742;SDS011;55583;53.012;6.556;2023-04-15T12:06:41;10.65;;;2.03;;
52742;SDS011;55583;53.012;6.556;2023-04-15T12:09:09;7.63;;;2.03;;
52742;SDS011;55583;53.012;6.556;2023-04-15T12:11:46;9.65;;;2.58;;
52742;SDS011;55583;53.012;6.556;2023-04-15T12:14:21;7.85;;;2.20;;
52742;SDS011;55583;53.012;6.556;2023-04-15T12:19:30;12.32;;;2.72;;
52742;SDS011;55583;53.012;6.556;2023-04-15T12:22:12;11.43;;;2.40;;
52742;SDS011;55583;53.012;6.556;2023-04-15T12:24:40;9.00;;;1.80;;
52742;SDS011;55583;53.012;6.556;2023-04-15T12:27:12;6.90;;;2.63;;
52742;SDS011;55583;53.012;6.556;2023-04-15T12:29:40;8.20;;;2.20;;
52742;SDS011;55583;53.012;6.556;2023-04-15T12:32:10;6.97;;;2.22;;
52742;SDS011;55583;53.012;6.556;2023-04-15T12:34:38;10.18;;;2.13;;
52742;SDS011;55583;53.012;6.556;2023-04-15T12:37:04;11.85;;;2.65;;
52742;SDS011;55583;53.012;6.556;2023-04-15T12:39:34;12.00;;;2.17;;
52742;SDS011;55583;53.012;6.556;2023-04-15T12:42:02;4.43;;;2.13;;
52742;SDS011;55583;53.012;6.556;2023-04-15T12:44:28;6.07;;;2.15;;
52742;SDS011;55583;53.012;6.556;2023-04-15T12:46:54;5.55;;;1.38;;
52742;SDS011;55583;53.012;6.556;2023-04-15T12:49:20;7.15;;;2.28;;
52742;SDS011;55583;53.012;6.556;2023-04-15T12:51:49;12.75;;;2.28;;
52742;SDS011;55583;53.012;6.556;2023-04-15T12:54:17;12.82;;;2.58;;
52742;SDS011;55583;53.012;6.556;2023-04-15T12:56:43;9.43;;;2.30;;
52742;SDS011;55583;53.012;6.556;2023-04-15T12:59:10;9.02;;;2.05;;
52742;SDS011;55583;53.012;6.556;2023-04-15T13:01:36;5.95;;;2.15;;
52742;SDS011;55583;53.012;6.556;2023-04-15T13:04:03;6.22;;;2.42;;
52742;SDS011;55583;53.012;6.556;2023-04-15T13:06:28;8.27;;;2.13;;
52742;SDS011;55583;53.012;6.556;2023-04-15T13:08:56;14.90;;;2.78;;
52742;SDS011;55583;53.012;6.556;2023-04-15T13:11:23;12.45;;;2.75;;
52742;SDS011;55583;53.012;6.556;2023-04-15T13:13:49;9.38;;;1.88;;
52742;SDS011;55583;53.012;6.556;2023-04-15T13:16:16;10.23;;;2.70;;
52742;SDS011;55583;53.012;6.556;2023-04-15T13:18:43;11.20;;;2.75;;
52742;SDS011;55583;53.012;6.556;2023-04-15T13:21:11;9.77;;;2.33;;
52742;SDS011;55583;53.012;6.556;2023-04-15T13:23:37;11.27;;;2.75;;
52742;SDS011;55583;53.012;6.556;2023-04-15T13:26:02;11.30;;;2.15;;
52742;SDS011;55583;53.012;6.556;2023-04-15T13:28:28;7.68;;;2.00;;
52742;SDS011;55583;53.012;6.556;2023-04-15T13:30:54;7.35;;;2.05;;
52742;SDS011;55583;53.012;6.556;2023-04-15T13:33:20;11.38;;;2.10;;
52742;SDS011;55583;53.012;6.556;2023-04-15T13:35:45;6.57;;;2.00;;
52742;SDS011;55583;53.012;6.556;2023-04-15T13:38:11;8.10;;;2.13;;
52742;SDS011;55583;53.012;6.556;2023-04-15T13:40:36;4.32;;;1.63;;
52742;SDS011;55583;53.012;6.556;2023-04-15T13:43:02;17.60;;;2.58;;
52742;SDS011;55583;53.012;6.556;2023-04-15T13:45:28;13.30;;;2.67;;
52742;SDS011;55583;53.012;6.556;2023-04-15T13:47:54;10.23;;;2.05;;
52742;SDS011;55583;53.012;6.556;2023-04-15T13:50:21;7.18;;;1.75;;
52742;SDS011;55583;53.012;6.556;2023-04-15T13:52:47;5.97;;;1.92;;
52742;SDS011;55583;53.012;6.556;2023-04-15T13:55:12;12.52;;;1.85;;
52742;SDS011;55583;53.012;6.556;2023-04-15T13:57:38;11.50;;;2.15;;
52742;SDS011;55583;53.012;6.556;2023-04-15T14:00:04;10.60;;;1.83;;
52742;SDS011;55583;53.012;6.556;2023-04-15T14:02:31;11.43;;;2.40;;
52742;SDS011;55583;53.012;6.556;2023-04-15T14:04:56;9.07;;;1.73;;
52742;SDS011;55583;53.012;6.556;2023-04-15T14:07:22;8.75;;;1.80;;
52742;SDS011;55583;53.012;6.556;2023-04-15T14:09:47;9.85;;;2.10;;
52742;SDS011;55583;53.012;6.556;2023-04-15T14:12:13;12.55;;;2.20;;
52742;SDS011;55583;53.012;6.556;2023-04-15T14:14:39;7.80;;;2.17;;
52742;SDS011;55583;53.012;6.556;2023-04-15T14:17:05;11.13;;;1.83;;
52742;SDS011;55583;53.012;6.556;2023-04-15T14:19:31;13.38;;;2.92;;
52742;SDS011;55583;53.012;6.556;2023-04-15T14:21:57;12.95;;;2.33;;
52742;SDS011;55583;53.012;6.556;2023-04-15T14:24:23;7.57;;;1.67;;
52742;SDS011;55583;53.012;6.556;2023-04-15T14:26:49;6.65;;;2.10;;
52742;SDS011;55583;53.012;6.556;2023-04-15T14:29:14;11.00;;;2.10;;
52742;SDS011;55583;53.012;6.556;2023-04-15T14:31:40;12.57;;;2.55;;
52742;SDS011;55583;53.012;6.556;2023-04-15T14:34:09;11.52;;;2.97;;
52742;SDS011;55583;53.012;6.556;2023-04-15T14:36:35;9.43;;;2.42;;
52742;SDS011;55583;53.012;6.556;2023-04-15T14:39:01;8.00;;;2.10;;
52742;SDS011;55583;53.012;6.556;2023-04-15T14:41:28;10.63;;;2.17;;
52742;SDS011;55583;53.012;6.556;2023-04-15T14:43:53;12.38;;;2.90;;
52742;SDS011;55583;53.012;6.556;2023-04-15T14:46:19;12.73;;;2.83;;
52742;SDS011;55583;53.012;6.556;2023-04-15T14:48:45;18.55;;;3.30;;